Armstrong, Illinois
Current Conditions -  °F | °C
As of 7:10 PM on Thursday 27 Nov 2014 (Local Time) from KTIP Reporting Station
Light Snow Light Snow  
Wind Chill: -9°   Ceiling: 2800
Heat Index: -4°   Visibility: 10mi
Dew Point: -8°   Wind: 8mph
Humidity: 73%   Direction: 320°NW
Pressure: 30.43"   Gusts: NA
Location:  40.31°N, 87.88°W
Report Text: KTIP 280110Z AUTO 32007KT 10SM -SN OVC028 M04/M08 A3043 RMK AO2 T10401082
Loading
Personal Weather Stations






























Interactive Weather Map New forecast layout! Learn more

10-Day Weather Forecast

Advertisements
Track Severe Weather on mobile